sensor_id;sensor_type;location;lat;lon;timestamp;P1;durP1;ratioP1;P2;durP2;ratioP2
37299;SDS011;23184;51.902;12.836;2023-02-17T00:01:59;42.63;;;23.45;;
37299;SDS011;23184;51.902;12.836;2023-02-17T00:04:28;46.97;;;23.85;;
37299;SDS011;23184;51.902;12.836;2023-02-17T00:06:55;48.45;;;25.48;;
37299;SDS011;23184;51.902;12.836;2023-02-17T00:09:20;45.70;;;23.90;;
37299;SDS011;23184;51.902;12.836;2023-02-17T00:11:46;48.97;;;26.75;;
37299;SDS011;23184;51.902;12.836;2023-02-17T00:14:12;53.97;;;28.30;;
37299;SDS011;23184;51.902;12.836;2023-02-17T00:16:38;53.03;;;28.38;;
37299;SDS011;23184;51.902;12.836;2023-02-17T00:19:04;53.00;;;28.10;;
37299;SDS011;23184;51.902;12.836;2023-02-17T00:21:47;56.83;;;28.17;;
37299;SDS011;23184;51.902;12.836;2023-02-17T00:24:24;56.90;;;29.20;;
37299;SDS011;23184;51.902;12.836;2023-02-17T00:26:50;53.03;;;27.83;;
37299;SDS011;23184;51.902;12.836;2023-02-17T00:29:16;49.95;;;27.48;;
37299;SDS011;23184;51.902;12.836;2023-02-17T00:31:42;54.78;;;28.35;;
37299;SDS011;23184;51.902;12.836;2023-02-17T00:34:08;50.83;;;26.60;;
37299;SDS011;23184;51.902;12.836;2023-02-17T00:36:33;55.80;;;28.50;;
37299;SDS011;23184;51.902;12.836;2023-02-17T00:38:59;48.95;;;26.63;;
37299;SDS011;23184;51.902;12.836;2023-02-17T00:41:25;50.22;;;28.58;;
37299;SDS011;23184;51.902;12.836;2023-02-17T00:43:51;52.35;;;26.50;;
37299;SDS011;23184;51.902;12.836;2023-02-17T00:46:17;53.97;;;29.30;;
37299;SDS011;23184;51.902;12.836;2023-02-17T00:48:43;58.20;;;30.25;;
37299;SDS011;23184;51.902;12.836;2023-02-17T00:51:09;50.90;;;28.00;;
37299;SDS011;23184;51.902;12.836;2023-02-17T00:53:35;53.35;;;29.35;;
37299;SDS011;23184;51.902;12.836;2023-02-17T00:56:01;51.22;;;27.05;;
37299;SDS011;23184;51.902;12.836;2023-02-17T00:58:27;50.15;;;27.10;;
37299;SDS011;23184;51.902;12.836;2023-02-17T01:00:56;50.58;;;26.33;;
37299;SDS011;23184;51.902;12.836;2023-02-17T01:03:22;53.45;;;29.77;;
37299;SDS011;23184;51.902;12.836;2023-02-17T01:05:48;57.95;;;30.83;;
37299;SDS011;23184;51.902;12.836;2023-02-17T01:08:14;62.55;;;30.73;;
37299;SDS011;23184;51.902;12.836;2023-02-17T01:10:41;63.35;;;31.77;;
37299;SDS011;23184;51.902;12.836;2023-02-17T01:13:09;64.32;;;37.17;;
37299;SDS011;23184;51.902;12.836;2023-02-17T01:15:53;76.70;;;37.45;;
37299;SDS011;23184;51.902;12.836;2023-02-17T01:18:20;68.72;;;36.00;;
37299;SDS011;23184;51.902;12.836;2023-02-17T01:20:47;70.75;;;33.88;;
37299;SDS011;23184;51.902;12.836;2023-02-17T01:23:12;73.15;;;36.38;;
37299;SDS011;23184;51.902;12.836;2023-02-17T01:25:42;65.20;;;34.60;;
37299;SDS011;23184;51.902;12.836;2023-02-17T01:28:10;64.70;;;33.78;;
37299;SDS011;23184;51.902;12.836;2023-02-17T01:30:39;68.53;;;33.90;;
37299;SDS011;23184;51.902;12.836;2023-02-17T01:33:05;61.85;;;30.67;;
37299;SDS011;23184;51.902;12.836;2023-02-17T01:35:32;68.55;;;33.50;;
37299;SDS011;23184;51.902;12.836;2023-02-17T01:37:58;59.75;;;30.77;;
37299;SDS011;23184;51.902;12.836;2023-02-17T01:40:24;58.70;;;31.98;;
37299;SDS011;23184;51.902;12.836;2023-02-17T01:42:49;56.45;;;30.55;;
37299;SDS011;23184;51.902;12.836;2023-02-17T01:45:26;55.92;;;28.73;;
37299;SDS011;23184;51.902;12.836;2023-02-17T01:48:13;52.47;;;28.70;;
37299;SDS011;23184;51.902;12.836;2023-02-17T01:50:43;56.88;;;29.80;;
37299;SDS011;23184;51.902;12.836;2023-02-17T01:53:13;50.88;;;29.25;;
37299;SDS011;23184;51.902;12.836;2023-02-17T01:55:43;48.20;;;27.80;;
37299;SDS011;23184;51.902;12.836;2023-02-17T01:58:11;53.00;;;27.30;;
37299;SDS011;23184;51.902;12.836;2023-02-17T02:00:39;49.80;;;25.88;;
37299;SDS011;23184;51.902;12.836;2023-02-17T02:03:05;49.28;;;26.30;;
37299;SDS011;23184;51.902;12.836;2023-02-17T02:05:33;45.80;;;26.08;;
37299;SDS011;23184;51.902;12.836;2023-02-17T02:07:59;40.92;;;25.15;;
37299;SDS011;23184;51.902;12.836;2023-02-17T02:10:25;46.97;;;27.25;;
37299;SDS011;23184;51.902;12.836;2023-02-17T02:12:51;52.92;;;28.33;;
37299;SDS011;23184;51.902;12.836;2023-02-17T02:15:17;49.92;;;26.42;;
37299;SDS011;23184;51.902;12.836;2023-02-17T02:20:45;49.92;;;28.75;;
37299;SDS011;23184;51.902;12.836;2023-02-17T02:28:55;56.33;;;29.80;;
37299;SDS011;23184;51.902;12.836;2023-02-17T02:32:05;58.05;;;31.30;;
37299;SDS011;23184;51.902;12.836;2023-02-17T02:34:59;61.88;;;32.00;;
37299;SDS011;23184;51.902;12.836;2023-02-17T02:37:36;79.57;;;36.03;;
37299;SDS011;23184;51.902;12.836;2023-02-17T02:40:07;73.63;;;40.40;;
37299;SDS011;23184;51.902;12.836;2023-02-17T02:42:35;91.32;;;42.85;;
37299;SDS011;23184;51.902;12.836;2023-02-17T02:45:01;84.40;;;40.95;;
37299;SDS011;23184;51.902;12.836;2023-02-17T02:47:37;79.90;;;42.80;;
37299;SDS011;23184;51.902;12.836;2023-02-17T02:50:04;89.22;;;48.22;;
37299;SDS011;23184;51.902;12.836;2023-02-17T02:52:40;90.45;;;43.58;;
37299;SDS011;23184;51.902;12.836;2023-02-17T02:58:18;94.68;;;44.75;;
37299;SDS011;23184;51.902;12.836;2023-02-17T03:01:11;88.32;;;42.03;;
37299;SDS011;23184;51.902;12.836;2023-02-17T03:04:20;89.43;;;38.63;;
37299;SDS011;23184;51.902;12.836;2023-02-17T03:07:10;89.40;;;43.97;;
37299;SDS011;23184;51.902;12.836;2023-02-17T03:09:49;91.47;;;41.75;;
37299;SDS011;23184;51.902;12.836;2023-02-17T03:12:16;89.57;;;42.40;;
37299;SDS011;23184;51.902;12.836;2023-02-17T03:14:43;98.25;;;44.25;;
37299;SDS011;23184;51.902;12.836;2023-02-17T03:17:09;101.95;;;45.15;;
37299;SDS011;23184;51.902;12.836;2023-02-17T03:19:35;97.45;;;50.88;;
37299;SDS011;23184;51.902;12.836;2023-02-17T03:22:06;107.72;;;50.47;;
37299;SDS011;23184;51.902;12.836;2023-02-17T03:24:38;106.82;;;48.63;;
37299;SDS011;23184;51.902;12.836;2023-02-17T03:27:03;111.63;;;50.85;;
37299;SDS011;23184;51.902;12.836;2023-02-17T03:29:29;108.75;;;48.33;;
37299;SDS011;23184;51.902;12.836;2023-02-17T03:31:54;102.55;;;48.00;;
37299;SDS011;23184;51.902;12.836;2023-02-17T03:34:19;96.53;;;47.97;;
37299;SDS011;23184;51.902;12.836;2023-02-17T03:36:45;91.15;;;45.25;;
37299;SDS011;23184;51.902;12.836;2023-02-17T03:39:10;94.15;;;44.05;;
37299;SDS011;23184;51.902;12.836;2023-02-17T03:41:36;89.03;;;42.80;;
37299;SDS011;23184;51.902;12.836;2023-02-17T03:44:02;85.75;;;44.47;;
37299;SDS011;23184;51.902;12.836;2023-02-17T03:46:27;77.95;;;39.88;;
37299;SDS011;23184;51.902;12.836;2023-02-17T03:48:53;79.15;;;43.28;;
37299;SDS011;23184;51.902;12.836;2023-02-17T03:51:20;78.88;;;43.42;;
37299;SDS011;23184;51.902;12.836;2023-02-17T03:53:46;77.20;;;38.47;;
37299;SDS011;23184;51.902;12.836;2023-02-17T03:56:12;69.88;;;39.50;;
37299;SDS011;23184;51.902;12.836;2023-02-17T03:58:39;80.53;;;39.00;;
37299;SDS011;23184;51.902;12.836;2023-02-17T04:01:05;71.55;;;40.33;;
37299;SDS011;23184;51.902;12.836;2023-02-17T04:03:32;77.45;;;37.67;;
37299;SDS011;23184;51.902;12.836;2023-02-17T04:05:59;74.00;;;35.42;;
37299;SDS011;23184;51.902;12.836;2023-02-17T04:08:24;73.05;;;38.70;;
37299;SDS011;23184;51.902;12.836;2023-02-17T04:10:53;76.25;;;38.97;;
37299;SDS011;23184;51.902;12.836;2023-02-17T04:13:21;81.65;;;39.58;;
37299;SDS011;23184;51.902;12.836;2023-02-17T04:15:47;77.07;;;38.42;;
37299;SDS011;23184;51.902;12.836;2023-02-17T04:18:13;82.65;;;39.33;;
37299;SDS011;23184;51.902;12.836;2023-02-17T04:20:39;70.15;;;36.72;;
37299;SDS011;23184;51.902;12.836;2023-02-17T04:23:04;67.30;;;36.70;;
37299;SDS011;23184;51.902;12.836;2023-02-17T04:25:32;64.60;;;33.05;;
37299;SDS011;23184;51.902;12.836;2023-02-17T04:27:58;63.80;;;33.40;;
37299;SDS011;23184;51.902;12.836;2023-02-17T04:30:24;67.30;;;35.78;;
37299;SDS011;23184;51.902;12.836;2023-02-17T04:32:49;59.92;;;33.17;;
37299;SDS011;23184;51.902;12.836;2023-02-17T04:35:15;64.07;;;35.85;;
37299;SDS011;23184;51.902;12.836;2023-02-17T04:37:40;67.65;;;32.90;;
37299;SDS011;23184;51.902;12.836;2023-02-17T04:40:06;57.25;;;30.48;;
37299;SDS011;23184;51.902;12.836;2023-02-17T04:42:34;55.33;;;31.33;;
37299;SDS011;23184;51.902;12.836;2023-02-17T04:45:00;57.75;;;32.90;;
37299;SDS011;23184;51.902;12.836;2023-02-17T04:47:26;58.60;;;34.08;;
37299;SDS011;23184;51.902;12.836;2023-02-17T04:49:52;53.60;;;31.70;;
37299;SDS011;23184;51.902;12.836;2023-02-17T04:52:17;51.85;;;29.95;;
37299;SDS011;23184;51.902;12.836;2023-02-17T04:54:43;58.10;;;29.15;;
37299;SDS011;23184;51.902;12.836;2023-02-17T04:57:08;51.25;;;27.80;;
37299;SDS011;23184;51.902;12.836;2023-02-17T04:59:34;55.95;;;28.45;;
37299;SDS011;23184;51.902;12.836;2023-02-17T05:01:59;52.75;;;29.40;;
37299;SDS011;23184;51.902;12.836;2023-02-17T05:04:25;54.78;;;29.30;;
37299;SDS011;23184;51.902;12.836;2023-02-17T05:06:50;53.78;;;28.50;;
37299;SDS011;23184;51.902;12.836;2023-02-17T05:09:16;53.22;;;28.65;;
37299;SDS011;23184;51.902;12.836;2023-02-17T05:11:41;48.00;;;26.73;;
37299;SDS011;23184;51.902;12.836;2023-02-17T05:14:07;46.80;;;27.27;;
37299;SDS011;23184;51.902;12.836;2023-02-17T05:16:32;49.83;;;27.30;;
37299;SDS011;23184;51.902;12.836;2023-02-17T05:18:58;47.53;;;28.98;;
37299;SDS011;23184;51.902;12.836;2023-02-17T05:21:23;44.60;;;26.35;;
37299;SDS011;23184;51.902;12.836;2023-02-17T05:23:49;47.33;;;27.02;;
37299;SDS011;23184;51.902;12.836;2023-02-17T05:26:14;43.38;;;25.95;;
37299;SDS011;23184;51.902;12.836;2023-02-17T05:28:40;46.80;;;25.92;;
37299;SDS011;23184;51.902;12.836;2023-02-17T05:31:05;44.10;;;26.13;;
37299;SDS011;23184;51.902;12.836;2023-02-17T05:33:31;49.42;;;25.73;;
37299;SDS011;23184;51.902;12.836;2023-02-17T05:36:04;48.00;;;28.40;;
37299;SDS011;23184;51.902;12.836;2023-02-17T05:38:31;40.53;;;26.67;;
37299;SDS011;23184;51.902;12.836;2023-02-17T05:40:56;42.00;;;26.95;;
37299;SDS011;23184;51.902;12.836;2023-02-17T05:43:22;42.53;;;24.63;;
37299;SDS011;23184;51.902;12.836;2023-02-17T05:45:47;37.65;;;24.13;;
37299;SDS011;23184;51.902;12.836;2023-02-17T05:48:13;40.28;;;22.88;;
37299;SDS011;23184;51.902;12.836;2023-02-17T05:50:38;40.95;;;25.08;;
37299;SDS011;23184;51.902;12.836;2023-02-17T05:53:04;39.70;;;24.23;;
37299;SDS011;23184;51.902;12.836;2023-02-17T05:55:29;40.30;;;24.27;;
37299;SDS011;23184;51.902;12.836;2023-02-17T05:57:55;38.97;;;24.27;;
37299;SDS011;23184;51.902;12.836;2023-02-17T06:00:20;38.78;;;22.20;;
37299;SDS011;23184;51.902;12.836;2023-02-17T06:02:46;42.55;;;27.30;;
37299;SDS011;23184;51.902;12.836;2023-02-17T06:05:11;35.05;;;22.15;;
37299;SDS011;23184;51.902;12.836;2023-02-17T06:07:37;38.60;;;22.85;;
37299;SDS011;23184;51.902;12.836;2023-02-17T06:10:03;35.75;;;22.42;;
37299;SDS011;23184;51.902;12.836;2023-02-17T06:12:29;37.22;;;24.15;;
37299;SDS011;23184;51.902;12.836;2023-02-17T06:14:54;34.05;;;21.15;;
37299;SDS011;23184;51.902;12.836;2023-02-17T06:17:20;33.42;;;22.00;;
37299;SDS011;23184;51.902;12.836;2023-02-17T06:19:45;33.15;;;20.88;;
37299;SDS011;23184;51.902;12.836;2023-02-17T06:22:11;34.80;;;24.27;;
37299;SDS011;23184;51.902;12.836;2023-02-17T06:24:36;33.83;;;21.58;;
37299;SDS011;23184;51.902;12.836;2023-02-17T06:27:02;33.05;;;21.20;;
37299;SDS011;23184;51.902;12.836;2023-02-17T06:29:27;30.98;;;20.92;;
37299;SDS011;23184;51.902;12.836;2023-02-17T06:31:53;33.28;;;22.13;;
37299;SDS011;23184;51.902;12.836;2023-02-17T06:34:19;32.90;;;20.40;;
37299;SDS011;23184;51.902;12.836;2023-02-17T06:36:44;33.13;;;20.20;;
37299;SDS011;23184;51.902;12.836;2023-02-17T06:39:10;29.70;;;20.65;;
37299;SDS011;23184;51.902;12.836;2023-02-17T06:41:35;35.22;;;24.00;;
37299;SDS011;23184;51.902;12.836;2023-02-17T06:44:01;34.42;;;19.10;;
37299;SDS011;23184;51.902;12.836;2023-02-17T06:46:26;32.03;;;20.27;;
37299;SDS011;23184;51.902;12.836;2023-02-17T06:48:52;33.35;;;22.00;;
37299;SDS011;23184;51.902;12.836;2023-02-17T06:51:17;30.23;;;19.33;;
37299;SDS011;23184;51.902;12.836;2023-02-17T06:53:43;29.88;;;21.40;;
37299;SDS011;23184;51.902;12.836;2023-02-17T06:56:08;29.75;;;18.73;;
37299;SDS011;23184;51.902;12.836;2023-02-17T06:58:35;29.73;;;20.75;;
37299;SDS011;23184;51.902;12.836;2023-02-17T07:01:01;32.47;;;20.65;;
37299;SDS011;23184;51.902;12.836;2023-02-17T07:03:27;30.98;;;18.08;;
37299;SDS011;23184;51.902;12.836;2023-02-17T07:05:56;32.72;;;19.45;;
37299;SDS011;23184;51.902;12.836;2023-02-17T07:08:22;28.38;;;20.40;;
37299;SDS011;23184;51.902;12.836;2023-02-17T07:10:48;27.73;;;17.95;;
37299;SDS011;23184;51.902;12.836;2023-02-17T07:13:13;26.92;;;17.40;;
37299;SDS011;23184;51.902;12.836;2023-02-17T07:15:39;27.73;;;18.98;;
37299;SDS011;23184;51.902;12.836;2023-02-17T07:18:04;28.38;;;18.63;;
37299;SDS011;23184;51.902;12.836;2023-02-17T07:20:30;22.88;;;17.38;;
37299;SDS011;23184;51.902;12.836;2023-02-17T07:22:56;25.55;;;17.65;;
37299;SDS011;23184;51.902;12.836;2023-02-17T07:25:22;27.02;;;16.52;;
37299;SDS011;23184;51.902;12.836;2023-02-17T07:27:47;23.48;;;15.77;;
37299;SDS011;23184;51.902;12.836;2023-02-17T07:30:13;23.63;;;16.52;;
37299;SDS011;23184;51.902;12.836;2023-02-17T07:32:38;25.27;;;16.00;;
37299;SDS011;23184;51.902;12.836;2023-02-17T07:35:04;24.00;;;16.88;;
37299;SDS011;23184;51.902;12.836;2023-02-17T07:37:30;23.85;;;16.08;;
37299;SDS011;23184;51.902;12.836;2023-02-17T07:39:55;24.70;;;16.25;;
37299;SDS011;23184;51.902;12.836;2023-02-17T07:42:21;23.42;;;15.95;;
37299;SDS011;23184;51.902;12.836;2023-02-17T07:44:47;21.58;;;14.40;;
37299;SDS011;23184;51.902;12.836;2023-02-17T07:47:12;23.10;;;15.88;;
37299;SDS011;23184;51.902;12.836;2023-02-17T07:49:38;24.75;;;15.38;;
37299;SDS011;23184;51.902;12.836;2023-02-17T07:52:04;24.45;;;16.73;;
37299;SDS011;23184;51.902;12.836;2023-02-17T07:54:29;20.02;;;13.32;;
37299;SDS011;23184;51.902;12.836;2023-02-17T07:56:55;20.75;;;14.75;;
37299;SDS011;23184;51.902;12.836;2023-02-17T07:59:20;22.67;;;14.32;;
37299;SDS011;23184;51.902;12.836;2023-02-17T08:01:46;19.60;;;13.85;;
37299;SDS011;23184;51.902;12.836;2023-02-17T08:04:11;21.15;;;14.60;;
37299;SDS011;23184;51.902;12.836;2023-02-17T08:06:37;18.25;;;13.15;;
37299;SDS011;23184;51.902;12.836;2023-02-17T08:09:06;20.50;;;14.55;;
37299;SDS011;23184;51.902;12.836;2023-02-17T08:11:50;19.70;;;14.77;;
37299;SDS011;23184;51.902;12.836;2023-02-17T08:14:34;21.02;;;14.52;;
37299;SDS011;23184;51.902;12.836;2023-02-17T08:16:59;20.55;;;13.90;;
37299;SDS011;23184;51.902;12.836;2023-02-17T08:19:25;21.48;;;14.38;;
37299;SDS011;23184;51.902;12.836;2023-02-17T08:21:51;22.00;;;15.60;;
37299;SDS011;23184;51.902;12.836;2023-02-17T08:24:17;20.00;;;12.85;;
37299;SDS011;23184;51.902;12.836;2023-02-17T08:26:46;18.95;;;13.70;;
37299;SDS011;23184;51.902;12.836;2023-02-17T08:29:13;20.67;;;14.38;;
37299;SDS011;23184;51.902;12.836;2023-02-17T08:31:39;23.40;;;13.43;;
37299;SDS011;23184;51.902;12.836;2023-02-17T08:34:07;23.13;;;15.05;;
37299;SDS011;23184;51.902;12.836;2023-02-17T08:36:34;20.42;;;14.25;;
37299;SDS011;23184;51.902;12.836;2023-02-17T08:39:01;27.25;;;18.08;;
37299;SDS011;23184;51.902;12.836;2023-02-17T08:41:31;20.90;;;13.88;;
37299;SDS011;23184;51.902;12.836;2023-02-17T08:43:58;22.27;;;15.02;;
37299;SDS011;23184;51.902;12.836;2023-02-17T08:46:26;20.27;;;15.25;;
37299;SDS011;23184;51.902;12.836;2023-02-17T08:48:52;20.08;;;15.27;;
37299;SDS011;23184;51.902;12.836;2023-02-17T08:51:21;21.67;;;15.18;;
37299;SDS011;23184;51.902;12.836;2023-02-17T08:53:50;20.50;;;13.85;;
37299;SDS011;23184;51.902;12.836;2023-02-17T08:56:18;21.88;;;14.60;;
37299;SDS011;23184;51.902;12.836;2023-02-17T08:58:44;22.00;;;16.65;;
37299;SDS011;23184;51.902;12.836;2023-02-17T09:01:10;25.35;;;16.73;;
37299;SDS011;23184;51.902;12.836;2023-02-17T09:03:36;23.05;;;16.30;;
37299;SDS011;23184;51.902;12.836;2023-02-17T09:06:02;22.90;;;17.17;;
37299;SDS011;23184;51.902;12.836;2023-02-17T09:08:28;23.23;;;15.50;;
37299;SDS011;23184;51.902;12.836;2023-02-17T09:10:54;23.05;;;16.02;;
37299;SDS011;23184;51.902;12.836;2023-02-17T09:13:19;25.67;;;16.75;;
37299;SDS011;23184;51.902;12.836;2023-02-17T09:15:45;23.45;;;16.88;;
37299;SDS011;23184;51.902;12.836;2023-02-17T09:18:11;25.67;;;16.42;;
37299;SDS011;23184;51.902;12.836;2023-02-17T09:20:37;27.58;;;17.17;;
37299;SDS011;23184;51.902;12.836;2023-02-17T09:23:03;27.50;;;17.92;;
37299;SDS011;23184;51.902;12.836;2023-02-17T09:25:29;23.45;;;16.00;;
37299;SDS011;23184;51.902;12.836;2023-02-17T09:27:55;25.85;;;18.42;;
37299;SDS011;23184;51.902;12.836;2023-02-17T09:30:20;27.08;;;16.48;;
37299;SDS011;23184;51.902;12.836;2023-02-17T09:32:46;22.42;;;16.88;;
37299;SDS011;23184;51.902;12.836;2023-02-17T09:35:12;25.08;;;16.13;;
37299;SDS011;23184;51.902;12.836;2023-02-17T09:37:39;20.58;;;15.02;;
37299;SDS011;23184;51.902;12.836;2023-02-17T09:40:05;22.63;;;17.58;;
37299;SDS011;23184;51.902;12.836;2023-02-17T09:42:31;26.10;;;17.15;;
37299;SDS011;23184;51.902;12.836;2023-02-17T09:45:10;23.77;;;17.90;;
37299;SDS011;23184;51.902;12.836;2023-02-17T09:47:44;19.45;;;13.85;;
37299;SDS011;23184;51.902;12.836;2023-02-17T09:50:14;22.77;;;15.63;;
37299;SDS011;23184;51.902;12.836;2023-02-17T09:55:37;22.25;;;14.35;;
37299;SDS011;23184;51.902;12.836;2023-02-17T09:58:11;22.65;;;15.40;;
37299;SDS011;23184;51.902;12.836;2023-02-17T10:00:55;18.70;;;14.80;;
37299;SDS011;23184;51.902;12.836;2023-02-17T10:03:24;19.10;;;14.15;;
37299;SDS011;23184;51.902;12.836;2023-02-17T10:11:27;17.02;;;13.50;;
37299;SDS011;23184;51.902;12.836;2023-02-17T10:13:59;16.98;;;12.32;;
37299;SDS011;23184;51.902;12.836;2023-02-17T10:16:35;16.02;;;12.13;;
37299;SDS011;23184;51.902;12.836;2023-02-17T10:19:16;17.65;;;14.30;;
37299;SDS011;23184;51.902;12.836;2023-02-17T10:22:13;22.23;;;12.57;;
37299;SDS011;23184;51.902;12.836;2023-02-17T10:24:42;16.73;;;12.82;;
37299;SDS011;23184;51.902;12.836;2023-02-17T10:27:19;18.90;;;11.85;;
37299;SDS011;23184;51.902;12.836;2023-02-17T10:32:48;13.93;;;9.23;;
37299;SDS011;23184;51.902;12.836;2023-02-17T10:40:44;14.20;;;10.48;;
37299;SDS011;23184;51.902;12.836;2023-02-17T10:43:11;14.18;;;10.15;;
37299;SDS011;23184;51.902;12.836;2023-02-17T10:45:42;11.95;;;9.40;;
37299;SDS011;23184;51.902;12.836;2023-02-17T10:48:14;14.95;;;10.55;;
37299;SDS011;23184;51.902;12.836;2023-02-17T10:50:41;15.20;;;10.00;;
37299;SDS011;23184;51.902;12.836;2023-02-17T10:53:21;15.90;;;9.38;;
37299;SDS011;23184;51.902;12.836;2023-02-17T10:58:39;14.40;;;10.13;;
37299;SDS011;23184;51.902;12.836;2023-02-17T11:01:09;11.27;;;8.63;;
37299;SDS011;23184;51.902;12.836;2023-02-17T11:03:36;13.18;;;9.43;;
37299;SDS011;23184;51.902;12.836;2023-02-17T11:06:05;11.23;;;9.48;;
37299;SDS011;23184;51.902;12.836;2023-02-17T11:11:14;11.40;;;8.48;;
37299;SDS011;23184;51.902;12.836;2023-02-17T11:13:43;13.63;;;9.00;;
37299;SDS011;23184;51.902;12.836;2023-02-17T11:16:39;9.77;;;6.75;;
37299;SDS011;23184;51.902;12.836;2023-02-17T11:19:17;10.10;;;7.53;;
37299;SDS011;23184;51.902;12.836;2023-02-17T11:21:55;10.27;;;7.13;;
37299;SDS011;23184;51.902;12.836;2023-02-17T11:24:22;11.65;;;8.15;;
37299;SDS011;23184;51.902;12.836;2023-02-17T11:27:23;11.57;;;8.10;;
37299;SDS011;23184;51.902;12.836;2023-02-17T11:29:47;10.65;;;7.43;;
37299;SDS011;23184;51.902;12.836;2023-02-17T11:32:13;11.07;;;8.65;;
37299;SDS011;23184;51.902;12.836;2023-02-17T11:34:39;9.82;;;8.38;;
37299;SDS011;23184;51.902;12.836;2023-02-17T11:39:47;10.38;;;7.72;;
37299;SDS011;23184;51.902;12.836;2023-02-17T11:42:24;8.82;;;7.00;;
37299;SDS011;23184;51.902;12.836;2023-02-17T11:44:55;8.25;;;6.40;;
37299;SDS011;23184;51.902;12.836;2023-02-17T11:47:34;9.93;;;6.35;;
37299;SDS011;23184;51.902;12.836;2023-02-17T11:52:50;9.25;;;6.35;;
37299;SDS011;23184;51.902;12.836;2023-02-17T11:58:38;10.25;;;6.10;;
37299;SDS011;23184;51.902;12.836;2023-02-17T12:01:28;7.97;;;6.05;;
37299;SDS011;23184;51.902;12.836;2023-02-17T12:04:22;9.40;;;4.93;;
37299;SDS011;23184;51.902;12.836;2023-02-17T12:12:25;7.57;;;5.55;;
37299;SDS011;23184;51.902;12.836;2023-02-17T12:15:23;6.25;;;5.15;;
37299;SDS011;23184;51.902;12.836;2023-02-17T12:18:14;7.10;;;4.70;;
37299;SDS011;23184;51.902;12.836;2023-02-17T12:28:54;7.72;;;5.03;;
37299;SDS011;23184;51.902;12.836;2023-02-17T12:34:33;6.70;;;4.38;;
37299;SDS011;23184;51.902;12.836;2023-02-17T12:37:01;6.10;;;4.90;;
37299;SDS011;23184;51.902;12.836;2023-02-17T12:39:31;7.50;;;5.18;;
37299;SDS011;23184;51.902;12.836;2023-02-17T12:42:19;9.10;;;6.03;;
37299;SDS011;23184;51.902;12.836;2023-02-17T12:44:51;7.68;;;5.63;;
37299;SDS011;23184;51.902;12.836;2023-02-17T12:47:25;8.02;;;5.50;;
37299;SDS011;23184;51.902;12.836;2023-02-17T12:52:59;7.78;;;5.53;;
37299;SDS011;23184;51.902;12.836;2023-02-17T12:55:31;7.00;;;4.68;;
37299;SDS011;23184;51.902;12.836;2023-02-17T12:58:06;6.55;;;4.93;;
37299;SDS011;23184;51.902;12.836;2023-02-17T13:00:45;9.10;;;5.38;;
37299;SDS011;23184;51.902;12.836;2023-02-17T13:03:14;5.35;;;4.22;;
37299;SDS011;23184;51.902;12.836;2023-02-17T13:05:50;6.63;;;4.47;;
37299;SDS011;23184;51.902;12.836;2023-02-17T13:11:32;6.68;;;5.18;;
37299;SDS011;23184;51.902;12.836;2023-02-17T13:14:42;7.30;;;5.32;;
37299;SDS011;23184;51.902;12.836;2023-02-17T13:16:47;6.10;;;4.22;;
37299;SDS011;23184;51.902;12.836;2023-02-17T13:19:13;5.82;;;4.28;;
37299;SDS011;23184;51.902;12.836;2023-02-17T13:21:47;6.30;;;4.38;;
37299;SDS011;23184;51.902;12.836;2023-02-17T13:24:30;4.90;;;3.55;;
37299;SDS011;23184;51.902;12.836;2023-02-17T13:27:20;5.22;;;3.70;;
37299;SDS011;23184;51.902;12.836;2023-02-17T13:35:46;5.00;;;4.00;;
37299;SDS011;23184;51.902;12.836;2023-02-17T13:38:12;5.72;;;4.15;;
37299;SDS011;23184;51.902;12.836;2023-02-17T13:40:50;7.18;;;4.05;;
37299;SDS011;23184;51.902;12.836;2023-02-17T13:43:17;5.20;;;3.78;;
37299;SDS011;23184;51.902;12.836;2023-02-17T13:50:55;5.13;;;3.55;;
37299;SDS011;23184;51.902;12.836;2023-02-17T13:53:27;5.53;;;3.72;;
37299;SDS011;23184;51.902;12.836;2023-02-17T13:55:57;6.28;;;3.47;;
37299;SDS011;23184;51.902;12.836;2023-02-17T13:58:26;5.97;;;4.22;;
37299;SDS011;23184;51.902;12.836;2023-02-17T14:00:54;5.15;;;3.60;;
37299;SDS011;23184;51.902;12.836;2023-02-17T14:03:33;5.90;;;3.80;;
37299;SDS011;23184;51.902;12.836;2023-02-17T14:06:05;5.00;;;3.45;;
37299;SDS011;23184;51.902;12.836;2023-02-17T14:08:36;5.10;;;3.67;;
37299;SDS011;23184;51.902;12.836;2023-02-17T14:11:05;6.03;;;3.42;;
37299;SDS011;23184;51.902;12.836;2023-02-17T14:13:34;4.72;;;3.60;;
37299;SDS011;23184;51.902;12.836;2023-02-17T14:16:05;5.00;;;3.25;;
37299;SDS011;23184;51.902;12.836;2023-02-17T14:18:40;4.68;;;3.85;;
37299;SDS011;23184;51.902;12.836;2023-02-17T14:21:12;5.72;;;3.60;;
37299;SDS011;23184;51.902;12.836;2023-02-17T14:23:50;4.03;;;2.97;;
37299;SDS011;23184;51.902;12.836;2023-02-17T14:26:37;4.50;;;3.20;;
37299;SDS011;23184;51.902;12.836;2023-02-17T14:29:11;4.75;;;3.20;;
37299;SDS011;23184;51.902;12.836;2023-02-17T14:31:47;4.85;;;3.40;;
37299;SDS011;23184;51.902;12.836;2023-02-17T14:34:28;4.25;;;3.25;;
37299;SDS011;23184;51.902;12.836;2023-02-17T14:39:48;5.95;;;3.13;;
37299;SDS011;23184;51.902;12.836;2023-02-17T14:42:14;6.55;;;3.47;;
37299;SDS011;23184;51.902;12.836;2023-02-17T14:44:40;6.10;;;3.60;;
37299;SDS011;23184;51.902;12.836;2023-02-17T14:47:06;7.30;;;3.92;;
37299;SDS011;23184;51.902;12.836;2023-02-17T14:49:32;5.50;;;4.10;;
37299;SDS011;23184;51.902;12.836;2023-02-17T14:51:57;6.97;;;3.90;;
37299;SDS011;23184;51.902;12.836;2023-02-17T14:54:23;5.40;;;3.75;;
37299;SDS011;23184;51.902;12.836;2023-02-17T14:57:04;7.50;;;4.13;;
37299;SDS011;23184;51.902;12.836;2023-02-17T14:59:31;6.03;;;3.90;;
37299;SDS011;23184;51.902;12.836;2023-02-17T15:01:57;7.00;;;4.43;;
37299;SDS011;23184;51.902;12.836;2023-02-17T15:04:23;8.00;;;4.70;;
37299;SDS011;23184;51.902;12.836;2023-02-17T15:06:49;6.43;;;4.57;;
37299;SDS011;23184;51.902;12.836;2023-02-17T15:09:19;7.10;;;4.07;;
37299;SDS011;23184;51.902;12.836;2023-02-17T15:11:50;7.40;;;4.47;;
37299;SDS011;23184;51.902;12.836;2023-02-17T15:14:17;6.90;;;4.05;;
37299;SDS011;23184;51.902;12.836;2023-02-17T15:16:44;6.35;;;4.10;;
37299;SDS011;23184;51.902;12.836;2023-02-17T15:19:11;5.95;;;4.60;;
37299;SDS011;23184;51.902;12.836;2023-02-17T15:21:37;6.53;;;4.43;;
37299;SDS011;23184;51.902;12.836;2023-02-17T15:24:22;8.63;;;4.97;;
37299;SDS011;23184;51.902;12.836;2023-02-17T15:26:49;5.70;;;4.13;;
37299;SDS011;23184;51.902;12.836;2023-02-17T15:29:15;6.38;;;4.57;;
37299;SDS011;23184;51.902;12.836;2023-02-17T15:31:42;8.63;;;5.00;;
37299;SDS011;23184;51.902;12.836;2023-02-17T15:34:11;6.63;;;4.60;;
37299;SDS011;23184;51.902;12.836;2023-02-17T15:36:39;7.15;;;5.32;;
37299;SDS011;23184;51.902;12.836;2023-02-17T15:39:04;11.63;;;6.13;;
37299;SDS011;23184;51.902;12.836;2023-02-17T15:41:30;7.47;;;5.55;;
37299;SDS011;23184;51.902;12.836;2023-02-17T15:43:55;11.07;;;6.63;;
37299;SDS011;23184;51.902;12.836;2023-02-17T15:46:23;9.93;;;7.15;;
37299;SDS011;23184;51.902;12.836;2023-02-17T15:48:53;10.05;;;6.70;;